Defne-s — TCTI5 — position and weather

sailwx.info

Track history (hours):
 
Tides and Currents Weather Stations Pressure Air Temp Water Temp Dewpoint Dewpoint Depression Visibility Wind Speed Wind Dir Waves Ship Positions

Defne-s

Last reported at 2018-Apr-23 10:33 UTC. Time now 2018-Apr-24 12:41 UTC.
Position N 41°12' W 008°54'.

Length 109 m; draft 6.9 m.

Type: Ship. MMSI: 271002639.

Date/timePositionNaut miles runAvg speedWind from/ knotsBaromVisibWave heightAir tempDewpointWater temp
2018-Apr-23 10:33N 41°12' W 008°54'010.9
2018-Apr-23 10:30N 41°12' W 008°53'611.1
2018-Apr-23 10:00N 41°10' W 008°46'3 5.3
2018-Apr-23 09:30N 41°11' W 008°43'0 0.0
2018-Apr-23 08:58N 41°11' W 008°43'0 0.0
2018-Apr-23 08:28N 41°11' W 008°43'0 0.0
2018-Apr-23 07:58N 41°11' W 008°43'0 0.0
2018-Apr-23 07:29N 41°11' W 008°43'0 0.0
2018-Apr-23 06:58N 41°11' W 008°43'0 0.0
2018-Apr-23 06:29N 41°11' W 008°43'0 0.0
2018-Apr-23 05:58N 41°11' W 008°43'0 0.0
2018-Apr-23 05:25N 41°11' W 008°43'0 0.0
2018-Apr-23 04:58N 41°11' W 008°43'0 0.0
2018-Apr-23 04:28N 41°11' W 008°43'0 0.0
2018-Apr-23 03:58N 41°11' W 008°43'0 0.0
2018-Apr-23 03:28N 41°11' W 008°43'0 0.0
2018-Apr-23 02:58N 41°11' W 008°43'0 0.0
2018-Apr-23 02:28N 41°11' W 008°43'0 0.0
2018-Apr-23 01:58N 41°11' W 008°43'0 0.0
2018-Apr-23 01:29N 41°11' W 008°43'0 0.0
2018-Apr-23 00:59N 41°11' W 008°43'0 0.0
2018-Apr-23 00:28N 41°11' W 008°43'0 0.0
2018-Apr-22 23:58N 41°11' W 008°43'0 0.0
2018-Apr-22 23:28N 41°11' W 008°43'0 0.0
2018-Apr-22 22:58N 41°11' W 008°43'0 0.0
2018-Apr-22 22:25N 41°11' W 008°43'0 0.0
2018-Apr-22 21:58N 41°11' W 008°43'0 0.0
2018-Apr-22 21:28N 41°11' W 008°43'0 0.0
2018-Apr-22 20:58N 41°11' W 008°43'0 0.0
2018-Apr-22 20:25N 41°11' W 008°43'0 0.0
2018-Apr-22 19:55N 41°11' W 008°43'0 0.0
2018-Apr-22 19:28N 41°11' W 008°43'0 0.0
2018-Apr-22 18:56N 41°11' W 008°43'0 0.0
2018-Apr-22 18:25N 41°11' W 008°43'0 0.0
2018-Apr-22 17:58N 41°11' W 008°43'0 0.0
2018-Apr-22 17:28N 41°11' W 008°43'0 0.0
2018-Apr-22 16:58N 41°11' W 008°43'0 0.0
2018-Apr-22 16:28N 41°11' W 008°43'0 0.0
2018-Apr-22 15:58N 41°11' W 008°43'0 0.0
2018-Apr-22 15:28N 41°11' W 008°43'0 0.0
2018-Apr-22 14:58N 41°11' W 008°43'0 0.0
2018-Apr-22 14:26N 41°11' W 008°43'0 0.0
2018-Apr-22 13:55N 41°11' W 008°43'0 0.0
2018-Apr-22 13:28N 41°11' W 008°43'0 0.0
2018-Apr-22 12:58N 41°11' W 008°43'0 0.0
2018-Apr-22 12:25N 41°11' W 008°43'0 0.0
2018-Apr-22 11:59N 41°11' W 008°43'0 0.0
2018-Apr-22 11:25N 41°11' W 008°43'0 0.0
2018-Apr-22 10:58N 41°11' W 008°43'0 0.0
2018-Apr-22 10:23N 41°11' W 008°43'0 0.0
2018-Apr-22 09:56N 41°11' W 008°43'0 0.0
2018-Apr-22 09:28N 41°11' W 008°43'1 2.3
2018-Apr-22 09:00N 41°10' W 008°43'3 5.3
2018-Apr-22 08:30N 41°08' W 008°46'1 1.3
2018-Apr-22 08:00N 41°09' W 008°47'0 0.2
2018-Apr-22 07:30N 41°09' W 008°47'1 1.8
2018-Apr-22 07:00N 41°08' W 008°47'3 6.0
2018-Apr-22 06:30N 41°06' W 008°50'8811.9
2018-Apr-21 23:09N 39°47' W 009°41'212.1
2018-Apr-21 23:00N 39°46' W 009°42'612.4
2018-Apr-21 22:30N 39°40' W 009°45'712.5
2018-Apr-21 21:58N 39°34' W 009°49'612.3
2018-Apr-21 21:30N 39°28' W 009°50'612.5
2018-Apr-21 21:00N 39°22' W 009°51'612.7
2018-Apr-21 20:30N 39°16' W 009°52'712.9
2018-Apr-21 20:00N 39°09' W 009°53'612.6
2018-Apr-21 19:30N 39°03' W 009°54'612.7
2018-Apr-21 19:00N 38°57' W 009°55'612.5
2018-Apr-21 18:30N 38°51' W 009°56'612.9
2018-Apr-21 18:00N 38°44' W 009°56'713.2
2018-Apr-21 17:28N 38°37' W 009°54'613.1
2018-Apr-21 17:00N 38°31' W 009°52'612.9
2018-Apr-21 16:30N 38°25' W 009°50'612.9
2018-Apr-21 16:00N 38°19' W 009°49'713.1
2018-Apr-21 15:30N 38°12' W 009°47'712.7
2018-Apr-21 14:54N 38°05' W 009°45'512.6
2018-Apr-21 14:30N 38°00' W 009°43'912.8
2018-Apr-21 13:49N 37°51' W 009°41'412.9
2018-Apr-21 13:30N 37°48' W 009°40'712.9
2018-Apr-21 13:00N 37°41' W 009°38'612.8
2018-Apr-21 12:30N 37°35' W 009°36'  
2018-Apr-19 03:25N 35°59' W 005°33'513.0
2018-Apr-19 03:00N 36°00' W 005°26'612.6
2018-Apr-19 02:30N 36°02' W 005°19'21312.4
2018-Apr-18 09:18N 37°11' W 001°08'413.0
2018-Apr-18 08:57N 37°14' W 001°04'612.8
2018-Apr-18 08:29N 37°18' W 000°58'612.8
2018-Apr-18 07:58N 37°22' W 000°51'613.1
2018-Apr-18 07:31N 37°26' W 000°46'812.6
2018-Apr-18 06:51N 37°32' W 000°38'412.6
2018-Apr-18 06:30N 37°35' W 000°34'612.6
2018-Apr-18 06:01N 37°39' W 000°29'612.7
2018-Apr-18 05:30N 37°44' W 000°23'612.3
2018-Apr-18 04:59N 37°49' W 000°19'712.4
2018-Apr-18 04:27N 37°55' W 000°16'612.6
2018-Apr-18 04:00N 38°00' W 000°12'912.6
2018-Apr-18 03:18N 38°08' W 000°06'412.8
2018-Apr-18 03:00N 38°11' W 000°03'912.9
2018-Apr-18 02:16N 38°19' E 000°03'312.6
2018-Apr-18 02:00N 38°22' E 000°06'  
2018-Apr-15 08:19N 41°02' E 001°30'512.0
2018-Apr-15 07:54N 41°03' E 001°37'511.9
2018-Apr-15 07:30N 41°03' E 001°43'612.3
2018-Apr-15 07:00N 41°02' E 001°51'612.5
2018-Apr-15 06:30N 41°03' E 001°60'612.6
2018-Apr-15 06:00N 41°04' E 002°08'29112.2
2018-Apr-14 06:03N 42°58' E 008°09'112.3
2018-Apr-14 05:59N 42°58' E 008°09'612.4
2018-Apr-14 05:28N 43°01' E 008°17'712.3
2018-Apr-14 04:55N 43°04' E 008°26'512.6
2018-Apr-14 04:30N 43°06' E 008°33'612.5
2018-Apr-14 04:00N 43°08' E 008°40'612.0
2018-Apr-14 03:30N 43°10' E 008°48'612.0
2018-Apr-14 03:00N 43°13' E 008°55'611.8
2018-Apr-14 02:30N 43°15' E 009°03'611.8
2018-Apr-14 02:00N 43°17' E 009°10'611.8
2018-Apr-14 01:30N 43°20' E 009°18'611.9
2018-Apr-14 01:00N 43°22' E 009°25'611.9
2018-Apr-14 00:30N 43°24' E 009°33'612.4
2018-Apr-14 00:00N 43°27' E 009°41'612.5
2018-Apr-13 23:30N 43°29' E 009°49'612.0
2018-Apr-13 23:00N 43°31' E 009°57'612.3
2018-Apr-13 22:30N 43°30' E 010°05'611.9
2018-Apr-13 22:00N 43°31' E 010°13'4 8.7
2018-Apr-13 21:30N 43°34' E 010°18'1 2.1
2018-Apr-13 21:00N 43°34' E 010°19'0 0.0
2018-Apr-13 20:27N 43°34' E 010°19'0 0.0
2018-Apr-13 19:57N 43°34' E 010°19'0 0.0
2018-Apr-13 19:30N 43°34' E 010°19'0 0.0
2018-Apr-13 19:00N 43°34' E 010°19'0 0.0
2018-Apr-13 18:30N 43°34' E 010°19'0 0.0
2018-Apr-13 18:00N 43°34' E 010°19'0 0.0
2018-Apr-13 17:30N 43°34' E 010°19'0 0.0
2018-Apr-13 16:57N 43°34' E 010°19'0 0.0
2018-Apr-13 16:30N 43°34' E 010°19'0 0.0
2018-Apr-13 16:00N 43°34' E 010°19'0 0.0
2018-Apr-13 15:30N 43°34' E 010°19'0 0.0
2018-Apr-13 15:00N 43°34' E 010°19'0 0.0
2018-Apr-13 14:30N 43°34' E 010°19'0 0.0
2018-Apr-13 14:00N 43°34' E 010°19'0 0.0
2018-Apr-13 13:27N 43°34' E 010°19'0 0.0
2018-Apr-13 13:00N 43°34' E 010°19'0 0.0
2018-Apr-13 12:27N 43°34' E 010°19'0 0.0
2018-Apr-13 12:00N 43°34' E 010°19'0 0.0
2018-Apr-13 11:30N 43°34' E 010°19'0 0.0
2018-Apr-13 11:00N 43°34' E 010°19'  
Track history (hours):
 
Tides and Currents Weather Stations Pressure Air Temp Water Temp Dewpoint Dewpoint Depression Visibility Wind Speed Wind Dir Waves Ship Positions

Defne-s

Last reported at 2018-Apr-23 10:33 UTC. Time now 2018-Apr-24 12:41 UTC.
Position N 41°12' W 008°54'.

Length 109 m; draft 6.9 m.

Type: Ship. MMSI: 271002639.

Date/timePositionNaut miles runAvg speedWind from/ knotsBaromVisibWave heightAir tempDewpointWater temp
2018-Apr-23 10:33N 41°12' W 008°54'010.9
2018-Apr-23 10:30N 41°12' W 008°53'611.1
2018-Apr-23 10:00N 41°10' W 008°46'3 5.3
2018-Apr-23 09:30N 41°11' W 008°43'0 0.0
2018-Apr-23 08:58N 41°11' W 008°43'0 0.0
2018-Apr-23 08:28N 41°11' W 008°43'0 0.0
2018-Apr-23 07:58N 41°11' W 008°43'0 0.0
2018-Apr-23 07:29N 41°11' W 008°43'0 0.0
2018-Apr-23 06:58N 41°11' W 008°43'0 0.0
2018-Apr-23 06:29N 41°11' W 008°43'0 0.0
2018-Apr-23 05:58N 41°11' W 008°43'0 0.0
2018-Apr-23 05:25N 41°11' W 008°43'0 0.0
2018-Apr-23 04:58N 41°11' W 008°43'0 0.0
2018-Apr-23 04:28N 41°11' W 008°43'0 0.0
2018-Apr-23 03:58N 41°11' W 008°43'0 0.0
2018-Apr-23 03:28N 41°11' W 008°43'0 0.0
2018-Apr-23 02:58N 41°11' W 008°43'0 0.0
2018-Apr-23 02:28N 41°11' W 008°43'0 0.0
2018-Apr-23 01:58N 41°11' W 008°43'0 0.0
2018-Apr-23 01:29N 41°11' W 008°43'0 0.0
2018-Apr-23 00:59N 41°11' W 008°43'0 0.0
2018-Apr-23 00:28N 41°11' W 008°43'0 0.0
2018-Apr-22 23:58N 41°11' W 008°43'0 0.0
2018-Apr-22 23:28N 41°11' W 008°43'0 0.0
2018-Apr-22 22:58N 41°11' W 008°43'0 0.0
2018-Apr-22 22:25N 41°11' W 008°43'0 0.0
2018-Apr-22 21:58N 41°11' W 008°43'0 0.0
2018-Apr-22 21:28N 41°11' W 008°43'0 0.0
2018-Apr-22 20:58N 41°11' W 008°43'0 0.0
2018-Apr-22 20:25N 41°11' W 008°43'0 0.0
2018-Apr-22 19:55N 41°11' W 008°43'0 0.0
2018-Apr-22 19:28N 41°11' W 008°43'0 0.0
2018-Apr-22 18:56N 41°11' W 008°43'0 0.0
2018-Apr-22 18:25N 41°11' W 008°43'0 0.0
2018-Apr-22 17:58N 41°11' W 008°43'0 0.0
2018-Apr-22 17:28N 41°11' W 008°43'0 0.0
2018-Apr-22 16:58N 41°11' W 008°43'0 0.0
2018-Apr-22 16:28N 41°11' W 008°43'0 0.0
2018-Apr-22 15:58N 41°11' W 008°43'0 0.0
2018-Apr-22 15:28N 41°11' W 008°43'0 0.0
2018-Apr-22 14:58N 41°11' W 008°43'0 0.0
2018-Apr-22 14:26N 41°11' W 008°43'0 0.0
2018-Apr-22 13:55N 41°11' W 008°43'0 0.0
2018-Apr-22 13:28N 41°11' W 008°43'0 0.0
2018-Apr-22 12:58N 41°11' W 008°43'0 0.0
2018-Apr-22 12:25N 41°11' W 008°43'0 0.0
2018-Apr-22 11:59N 41°11' W 008°43'0 0.0
2018-Apr-22 11:25N 41°11' W 008°43'0 0.0
2018-Apr-22 10:58N 41°11' W 008°43'0 0.0
2018-Apr-22 10:23N 41°11' W 008°43'0 0.0
2018-Apr-22 09:56N 41°11' W 008°43'0 0.0
2018-Apr-22 09:28N 41°11' W 008°43'1 2.3
2018-Apr-22 09:00N 41°10' W 008°43'3 5.3
2018-Apr-22 08:30N 41°08' W 008°46'1 1.3
2018-Apr-22 08:00N 41°09' W 008°47'0 0.2
2018-Apr-22 07:30N 41°09' W 008°47'1 1.8
2018-Apr-22 07:00N 41°08' W 008°47'3 6.0
2018-Apr-22 06:30N 41°06' W 008°50'8811.9
2018-Apr-21 23:09N 39°47' W 009°41'212.1
2018-Apr-21 23:00N 39°46' W 009°42'612.4
2018-Apr-21 22:30N 39°40' W 009°45'712.5
2018-Apr-21 21:58N 39°34' W 009°49'612.3
2018-Apr-21 21:30N 39°28' W 009°50'612.5
2018-Apr-21 21:00N 39°22' W 009°51'612.7
2018-Apr-21 20:30N 39°16' W 009°52'712.9
2018-Apr-21 20:00N 39°09' W 009°53'612.6
2018-Apr-21 19:30N 39°03' W 009°54'612.7
2018-Apr-21 19:00N 38°57' W 009°55'612.5
2018-Apr-21 18:30N 38°51' W 009°56'612.9
2018-Apr-21 18:00N 38°44' W 009°56'713.2
2018-Apr-21 17:28N 38°37' W 009°54'613.1
2018-Apr-21 17:00N 38°31' W 009°52'612.9
2018-Apr-21 16:30N 38°25' W 009°50'612.9
2018-Apr-21 16:00N 38°19' W 009°49'713.1
2018-Apr-21 15:30N 38°12' W 009°47'712.7
2018-Apr-21 14:54N 38°05' W 009°45'512.6
2018-Apr-21 14:30N 38°00' W 009°43'912.8
2018-Apr-21 13:49N 37°51' W 009°41'412.9
2018-Apr-21 13:30N 37°48' W 009°40'712.9
2018-Apr-21 13:00N 37°41' W 009°38'612.8
2018-Apr-21 12:30N 37°35' W 009°36'  
2018-Apr-19 03:25N 35°59' W 005°33'513.0
2018-Apr-19 03:00N 36°00' W 005°26'612.6
2018-Apr-19 02:30N 36°02' W 005°19'21312.4
2018-Apr-18 09:18N 37°11' W 001°08'413.0
2018-Apr-18 08:57N 37°14' W 001°04'612.8
2018-Apr-18 08:29N 37°18' W 000°58'612.8
2018-Apr-18 07:58N 37°22' W 000°51'613.1
2018-Apr-18 07:31N 37°26' W 000°46'812.6
2018-Apr-18 06:51N 37°32' W 000°38'412.6
2018-Apr-18 06:30N 37°35' W 000°34'612.6
2018-Apr-18 06:01N 37°39' W 000°29'612.7
2018-Apr-18 05:30N 37°44' W 000°23'612.3
2018-Apr-18 04:59N 37°49' W 000°19'712.4
2018-Apr-18 04:27N 37°55' W 000°16'612.6
2018-Apr-18 04:00N 38°00' W 000°12'912.6
2018-Apr-18 03:18N 38°08' W 000°06'412.8
2018-Apr-18 03:00N 38°11' W 000°03'912.9
2018-Apr-18 02:16N 38°19' E 000°03'312.6
2018-Apr-18 02:00N 38°22' E 000°06'  
2018-Apr-15 08:19N 41°02' E 001°30'512.0
2018-Apr-15 07:54N 41°03' E 001°37'511.9
2018-Apr-15 07:30N 41°03' E 001°43'612.3
2018-Apr-15 07:00N 41°02' E 001°51'612.5
2018-Apr-15 06:30N 41°03' E 001°60'612.6
2018-Apr-15 06:00N 41°04' E 002°08'29112.2
2018-Apr-14 06:03N 42°58' E 008°09'112.3
2018-Apr-14 05:59N 42°58' E 008°09'612.4
2018-Apr-14 05:28N 43°01' E 008°17'712.3
2018-Apr-14 04:55N 43°04' E 008°26'512.6
2018-Apr-14 04:30N 43°06' E 008°33'612.5
2018-Apr-14 04:00N 43°08' E 008°40'612.0
2018-Apr-14 03:30N 43°10' E 008°48'612.0
2018-Apr-14 03:00N 43°13' E 008°55'611.8
2018-Apr-14 02:30N 43°15' E 009°03'611.8
2018-Apr-14 02:00N 43°17' E 009°10'611.8
2018-Apr-14 01:30N 43°20' E 009°18'611.9
2018-Apr-14 01:00N 43°22' E 009°25'611.9
2018-Apr-14 00:30N 43°24' E 009°33'612.4
2018-Apr-14 00:00N 43°27' E 009°41'612.5
2018-Apr-13 23:30N 43°29' E 009°49'612.0
2018-Apr-13 23:00N 43°31' E 009°57'612.3
2018-Apr-13 22:30N 43°30' E 010°05'611.9
2018-Apr-13 22:00N 43°31' E 010°13'4 8.7
2018-Apr-13 21:30N 43°34' E 010°18'1 2.1
2018-Apr-13 21:00N 43°34' E 010°19'0 0.0
2018-Apr-13 20:27N 43°34' E 010°19'0 0.0
2018-Apr-13 19:57N 43°34' E 010°19'0 0.0
2018-Apr-13 19:30N 43°34' E 010°19'0 0.0
2018-Apr-13 19:00N 43°34' E 010°19'0 0.0
2018-Apr-13 18:30N 43°34' E 010°19'0 0.0
2018-Apr-13 18:00N 43°34' E 010°19'0 0.0
2018-Apr-13 17:30N 43°34' E 010°19'0 0.0
2018-Apr-13 16:57N 43°34' E 010°19'0 0.0
2018-Apr-13 16:30N 43°34' E 010°19'0 0.0
2018-Apr-13 16:00N 43°34' E 010°19'0 0.0
2018-Apr-13 15:30N 43°34' E 010°19'0 0.0
2018-Apr-13 15:00N 43°34' E 010°19'0 0.0
2018-Apr-13 14:30N 43°34' E 010°19'0 0.0
2018-Apr-13 14:00N 43°34' E 010°19'0 0.0
2018-Apr-13 13:27N 43°34' E 010°19'0 0.0
2018-Apr-13 13:00N 43°34' E 010°19'0 0.0
2018-Apr-13 12:27N 43°34' E 010°19'0 0.0
2018-Apr-13 12:00N 43°34' E 010°19'0 0.0
2018-Apr-13 11:30N 43°34' E 010°19'0 0.0
2018-Apr-13 11:00N 43°34' E 010°19'  

Dump ship's entire track history